sensor_id;sensor_type;location;lat;lon;timestamp;P1;durP1;ratioP1;P2;durP2;ratioP2
80307;SDS011;69616;43.522;1.348;2023-09-30T00:00:55;14.20;;;3.67;;
80307;SDS011;69616;43.522;1.348;2023-09-30T00:03:20;12.73;;;3.40;;
80307;SDS011;69616;43.522;1.348;2023-09-30T00:05:45;13.13;;;3.77;;
80307;SDS011;69616;43.522;1.348;2023-09-30T00:08:11;13.50;;;3.60;;
80307;SDS011;69616;43.522;1.348;2023-09-30T00:10:36;15.80;;;3.53;;
80307;SDS011;69616;43.522;1.348;2023-09-30T00:13:02;11.75;;;3.30;;
80307;SDS011;69616;43.522;1.348;2023-09-30T00:15:28;12.90;;;3.37;;
80307;SDS011;69616;43.522;1.348;2023-09-30T00:17:53;11.27;;;3.47;;
80307;SDS011;69616;43.522;1.348;2023-09-30T00:20:19;12.55;;;3.20;;
80307;SDS011;69616;43.522;1.348;2023-09-30T00:22:44;12.27;;;3.50;;
80307;SDS011;69616;43.522;1.348;2023-09-30T00:25:09;12.40;;;3.37;;
80307;SDS011;69616;43.522;1.348;2023-09-30T00:27:35;10.30;;;3.05;;
80307;SDS011;69616;43.522;1.348;2023-09-30T00:30:01;12.37;;;3.30;;
80307;SDS011;69616;43.522;1.348;2023-09-30T00:32:28;12.38;;;3.47;;
80307;SDS011;69616;43.522;1.348;2023-09-30T00:34:53;12.77;;;3.45;;
80307;SDS011;69616;43.522;1.348;2023-09-30T00:37:19;11.52;;;3.47;;
80307;SDS011;69616;43.522;1.348;2023-09-30T00:39:45;11.63;;;3.87;;
80307;SDS011;69616;43.522;1.348;2023-09-30T00:42:10;10.03;;;2.80;;
80307;SDS011;69616;43.522;1.348;2023-09-30T00:44:36;10.07;;;3.30;;
80307;SDS011;69616;43.522;1.348;2023-09-30T00:47:01;8.80;;;2.47;;
80307;SDS011;69616;43.522;1.348;2023-09-30T00:49:27;11.13;;;3.30;;
80307;SDS011;69616;43.522;1.348;2023-09-30T00:51:54;13.40;;;3.25;;
80307;SDS011;69616;43.522;1.348;2023-09-30T00:54:20;11.88;;;3.25;;
80307;SDS011;69616;43.522;1.348;2023-09-30T00:56:47;11.50;;;2.92;;
80307;SDS011;69616;43.522;1.348;2023-09-30T00:59:15;10.10;;;2.88;;
80307;SDS011;69616;43.522;1.348;2023-09-30T01:01:44;10.67;;;2.73;;
80307;SDS011;69616;43.522;1.348;2023-09-30T01:04:11;10.05;;;2.90;;
80307;SDS011;69616;43.522;1.348;2023-09-30T01:06:37;11.18;;;2.80;;
80307;SDS011;69616;43.522;1.348;2023-09-30T01:09:03;9.40;;;2.67;;
80307;SDS011;69616;43.522;1.348;2023-09-30T01:11:28;9.90;;;2.72;;
80307;SDS011;69616;43.522;1.348;2023-09-30T01:13:54;10.38;;;2.78;;
80307;SDS011;69616;43.522;1.348;2023-09-30T01:16:20;11.37;;;2.93;;
80307;SDS011;69616;43.522;1.348;2023-09-30T01:18:46;10.60;;;3.08;;
80307;SDS011;69616;43.522;1.348;2023-09-30T01:21:12;12.47;;;3.03;;
80307;SDS011;69616;43.522;1.348;2023-09-30T01:23:37;11.80;;;2.93;;
80307;SDS011;69616;43.522;1.348;2023-09-30T01:26:04;8.90;;;2.47;;
80307;SDS011;69616;43.522;1.348;2023-09-30T01:28:34;11.13;;;3.20;;
80307;SDS011;69616;43.522;1.348;2023-09-30T01:30:59;12.37;;;3.03;;
80307;SDS011;69616;43.522;1.348;2023-09-30T01:33:26;9.55;;;2.80;;
80307;SDS011;69616;43.522;1.348;2023-09-30T01:35:52;9.15;;;2.97;;
80307;SDS011;69616;43.522;1.348;2023-09-30T01:38:17;10.07;;;2.77;;
80307;SDS011;69616;43.522;1.348;2023-09-30T01:40:43;10.10;;;3.28;;
80307;SDS011;69616;43.522;1.348;2023-09-30T01:43:08;10.77;;;2.87;;
80307;SDS011;69616;43.522;1.348;2023-09-30T01:45:34;12.20;;;3.10;;
80307;SDS011;69616;43.522;1.348;2023-09-30T01:48:01;10.73;;;3.00;;
80307;SDS011;69616;43.522;1.348;2023-09-30T01:50:27;9.48;;;2.80;;
80307;SDS011;69616;43.522;1.348;2023-09-30T01:52:52;11.67;;;2.57;;
80307;SDS011;69616;43.522;1.348;2023-09-30T01:55:18;11.30;;;3.10;;
80307;SDS011;69616;43.522;1.348;2023-09-30T01:57:43;9.50;;;2.97;;
80307;SDS011;69616;43.522;1.348;2023-09-30T02:00:08;10.50;;;3.00;;
80307;SDS011;69616;43.522;1.348;2023-09-30T02:02:34;11.50;;;3.20;;
80307;SDS011;69616;43.522;1.348;2023-09-30T02:05:01;10.07;;;3.05;;
80307;SDS011;69616;43.522;1.348;2023-09-30T02:07:27;11.70;;;2.83;;
80307;SDS011;69616;43.522;1.348;2023-09-30T02:09:54;11.52;;;3.30;;
80307;SDS011;69616;43.522;1.348;2023-09-30T02:12:19;13.27;;;3.00;;
80307;SDS011;69616;43.522;1.348;2023-09-30T02:14:44;10.70;;;2.60;;
80307;SDS011;69616;43.522;1.348;2023-09-30T02:17:11;12.25;;;2.90;;
80307;SDS011;69616;43.522;1.348;2023-09-30T02:19:36;12.73;;;3.07;;
80307;SDS011;69616;43.522;1.348;2023-09-30T02:22:02;9.90;;;2.77;;
80307;SDS011;69616;43.522;1.348;2023-09-30T02:24:27;14.05;;;2.88;;
80307;SDS011;69616;43.522;1.348;2023-09-30T02:26:52;11.63;;;2.70;;
80307;SDS011;69616;43.522;1.348;2023-09-30T02:29:18;12.07;;;3.03;;
80307;SDS011;69616;43.522;1.348;2023-09-30T02:31:43;9.70;;;2.67;;
80307;SDS011;69616;43.522;1.348;2023-09-30T02:34:08;9.07;;;2.40;;
80307;SDS011;69616;43.522;1.348;2023-09-30T02:36:34;9.47;;;2.50;;
80307;SDS011;69616;43.522;1.348;2023-09-30T02:39:05;9.70;;;2.78;;
80307;SDS011;69616;43.522;1.348;2023-09-30T02:41:30;9.97;;;2.50;;
80307;SDS011;69616;43.522;1.348;2023-09-30T02:43:56;11.00;;;3.10;;
80307;SDS011;69616;43.522;1.348;2023-09-30T02:46:21;7.80;;;2.50;;
80307;SDS011;69616;43.522;1.348;2023-09-30T02:48:47;9.63;;;2.77;;
80307;SDS011;69616;43.522;1.348;2023-09-30T02:51:12;9.57;;;2.77;;
80307;SDS011;69616;43.522;1.348;2023-09-30T02:53:38;10.63;;;2.83;;
80307;SDS011;69616;43.522;1.348;2023-09-30T02:56:03;10.93;;;2.93;;
80307;SDS011;69616;43.522;1.348;2023-09-30T02:58:29;9.38;;;2.40;;
80307;SDS011;69616;43.522;1.348;2023-09-30T03:00:55;10.07;;;2.60;;
80307;SDS011;69616;43.522;1.348;2023-09-30T03:03:21;9.87;;;2.50;;
80307;SDS011;69616;43.522;1.348;2023-09-30T03:05:47;8.93;;;2.55;;
80307;SDS011;69616;43.522;1.348;2023-09-30T03:08:14;9.15;;;2.90;;
80307;SDS011;69616;43.522;1.348;2023-09-30T03:10:39;10.00;;;2.47;;
80307;SDS011;69616;43.522;1.348;2023-09-30T03:13:05;10.98;;;2.70;;
80307;SDS011;69616;43.522;1.348;2023-09-30T03:15:33;11.52;;;2.92;;
80307;SDS011;69616;43.522;1.348;2023-09-30T03:17:58;8.23;;;2.40;;
80307;SDS011;69616;43.522;1.348;2023-09-30T03:20:25;11.37;;;3.00;;
80307;SDS011;69616;43.522;1.348;2023-09-30T03:22:51;10.05;;;2.78;;
80307;SDS011;69616;43.522;1.348;2023-09-30T03:25:17;9.48;;;2.80;;
80307;SDS011;69616;43.522;1.348;2023-09-30T03:27:44;10.27;;;2.90;;
80307;SDS011;69616;43.522;1.348;2023-09-30T03:30:11;10.47;;;3.23;;
80307;SDS011;69616;43.522;1.348;2023-09-30T03:32:38;9.60;;;2.50;;
80307;SDS011;69616;43.522;1.348;2023-09-30T03:35:04;10.07;;;2.83;;
80307;SDS011;69616;43.522;1.348;2023-09-30T03:37:31;8.05;;;2.88;;
80307;SDS011;69616;43.522;1.348;2023-09-30T03:39:57;9.40;;;2.63;;
80307;SDS011;69616;43.522;1.348;2023-09-30T03:42:23;8.50;;;2.70;;
80307;SDS011;69616;43.522;1.348;2023-09-30T03:44:49;14.10;;;2.90;;
80307;SDS011;69616;43.522;1.348;2023-09-30T03:47:15;8.18;;;2.75;;
80307;SDS011;69616;43.522;1.348;2023-09-30T03:49:41;8.43;;;2.77;;
80307;SDS011;69616;43.522;1.348;2023-09-30T03:52:08;8.95;;;2.83;;
80307;SDS011;69616;43.522;1.348;2023-09-30T03:54:34;8.75;;;2.47;;
80307;SDS011;69616;43.522;1.348;2023-09-30T03:57:00;11.52;;;3.13;;
80307;SDS011;69616;43.522;1.348;2023-09-30T03:59:26;9.30;;;2.60;;
80307;SDS011;69616;43.522;1.348;2023-09-30T04:01:51;11.07;;;3.10;;
80307;SDS011;69616;43.522;1.348;2023-09-30T04:04:18;8.97;;;2.90;;
80307;SDS011;69616;43.522;1.348;2023-09-30T04:06:44;9.20;;;2.90;;
80307;SDS011;69616;43.522;1.348;2023-09-30T04:09:11;10.77;;;2.75;;
80307;SDS011;69616;43.522;1.348;2023-09-30T04:11:38;8.10;;;2.40;;
80307;SDS011;69616;43.522;1.348;2023-09-30T04:14:06;7.87;;;2.40;;
80307;SDS011;69616;43.522;1.348;2023-09-30T04:16:33;12.18;;;3.22;;
80307;SDS011;69616;43.522;1.348;2023-09-30T04:18:58;12.07;;;3.35;;
80307;SDS011;69616;43.522;1.348;2023-09-30T04:21:24;8.70;;;2.67;;
80307;SDS011;69616;43.522;1.348;2023-09-30T04:23:49;10.17;;;3.00;;
80307;SDS011;69616;43.522;1.348;2023-09-30T04:26:15;8.75;;;2.80;;
80307;SDS011;69616;43.522;1.348;2023-09-30T04:28:41;9.60;;;2.83;;
80307;SDS011;69616;43.522;1.348;2023-09-30T04:31:06;8.27;;;2.40;;
80307;SDS011;69616;43.522;1.348;2023-09-30T04:33:33;8.45;;;3.10;;
80307;SDS011;69616;43.522;1.348;2023-09-30T04:36:00;9.20;;;2.88;;
80307;SDS011;69616;43.522;1.348;2023-09-30T04:38:26;13.20;;;2.90;;
80307;SDS011;69616;43.522;1.348;2023-09-30T04:40:52;12.17;;;2.33;;
80307;SDS011;69616;43.522;1.348;2023-09-30T04:43:19;7.35;;;2.53;;
80307;SDS011;69616;43.522;1.348;2023-09-30T04:45:45;6.93;;;2.50;;
80307;SDS011;69616;43.522;1.348;2023-09-30T04:48:11;9.30;;;2.63;;
80307;SDS011;69616;43.522;1.348;2023-09-30T04:50:38;7.82;;;2.58;;
80307;SDS011;69616;43.522;1.348;2023-09-30T04:53:06;12.00;;;2.50;;
80307;SDS011;69616;43.522;1.348;2023-09-30T04:55:33;7.13;;;2.22;;
80307;SDS011;69616;43.522;1.348;2023-09-30T04:57:59;8.77;;;2.40;;
80307;SDS011;69616;43.522;1.348;2023-09-30T05:00:24;7.05;;;2.60;;
80307;SDS011;69616;43.522;1.348;2023-09-30T05:02:50;7.87;;;2.37;;
80307;SDS011;69616;43.522;1.348;2023-09-30T05:05:17;9.55;;;2.42;;
80307;SDS011;69616;43.522;1.348;2023-09-30T05:07:43;10.50;;;2.85;;
80307;SDS011;69616;43.522;1.348;2023-09-30T05:10:11;8.60;;;2.47;;
80307;SDS011;69616;43.522;1.348;2023-09-30T05:12:38;9.82;;;2.63;;
80307;SDS011;69616;43.522;1.348;2023-09-30T05:15:04;7.97;;;2.50;;
80307;SDS011;69616;43.522;1.348;2023-09-30T05:17:33;9.93;;;2.30;;
80307;SDS011;69616;43.522;1.348;2023-09-30T05:19:58;5.67;;;2.37;;
80307;SDS011;69616;43.522;1.348;2023-09-30T05:22:24;8.70;;;2.20;;
80307;SDS011;69616;43.522;1.348;2023-09-30T05:24:52;6.40;;;2.30;;
80307;SDS011;69616;43.522;1.348;2023-09-30T05:27:18;7.43;;;2.40;;
80307;SDS011;69616;43.522;1.348;2023-09-30T05:29:44;6.32;;;2.28;;
80307;SDS011;69616;43.522;1.348;2023-09-30T05:32:10;8.43;;;2.38;;
80307;SDS011;69616;43.522;1.348;2023-09-30T05:34:35;8.43;;;2.33;;
80307;SDS011;69616;43.522;1.348;2023-09-30T05:37:02;8.30;;;2.35;;
80307;SDS011;69616;43.522;1.348;2023-09-30T05:39:28;9.80;;;2.53;;
80307;SDS011;69616;43.522;1.348;2023-09-30T05:41:53;9.98;;;2.63;;
80307;SDS011;69616;43.522;1.348;2023-09-30T05:44:20;8.50;;;2.15;;
80307;SDS011;69616;43.522;1.348;2023-09-30T05:46:46;9.03;;;2.20;;
80307;SDS011;69616;43.522;1.348;2023-09-30T05:49:11;10.03;;;2.60;;
80307;SDS011;69616;43.522;1.348;2023-09-30T05:51:41;7.22;;;2.20;;
80307;SDS011;69616;43.522;1.348;2023-09-30T05:54:07;7.65;;;2.70;;
80307;SDS011;69616;43.522;1.348;2023-09-30T05:56:35;9.60;;;2.72;;
80307;SDS011;69616;43.522;1.348;2023-09-30T05:59:02;7.07;;;2.45;;
80307;SDS011;69616;43.522;1.348;2023-09-30T06:01:28;6.63;;;2.20;;
80307;SDS011;69616;43.522;1.348;2023-09-30T06:03:53;7.60;;;2.53;;
80307;SDS011;69616;43.522;1.348;2023-09-30T06:06:19;8.68;;;2.55;;
80307;SDS011;69616;43.522;1.348;2023-09-30T06:08:45;8.47;;;2.47;;
80307;SDS011;69616;43.522;1.348;2023-09-30T06:11:22;7.47;;;2.70;;
80307;SDS011;69616;43.522;1.348;2023-09-30T06:13:57;9.68;;;2.33;;
80307;SDS011;69616;43.522;1.348;2023-09-30T06:16:29;8.10;;;2.50;;
80307;SDS011;69616;43.522;1.348;2023-09-30T06:18:56;7.78;;;2.28;;
80307;SDS011;69616;43.522;1.348;2023-09-30T06:21:23;6.67;;;2.40;;
80307;SDS011;69616;43.522;1.348;2023-09-30T06:23:50;8.25;;;2.42;;
80307;SDS011;69616;43.522;1.348;2023-09-30T06:26:19;10.55;;;2.90;;
80307;SDS011;69616;43.522;1.348;2023-09-30T06:28:46;9.88;;;2.92;;
80307;SDS011;69616;43.522;1.348;2023-09-30T06:31:12;9.37;;;2.47;;
80307;SDS011;69616;43.522;1.348;2023-09-30T06:33:39;8.27;;;2.40;;
80307;SDS011;69616;43.522;1.348;2023-09-30T06:36:09;8.30;;;2.67;;
80307;SDS011;69616;43.522;1.348;2023-09-30T06:38:35;9.25;;;2.80;;
80307;SDS011;69616;43.522;1.348;2023-09-30T06:41:02;8.93;;;2.50;;
80307;SDS011;69616;43.522;1.348;2023-09-30T06:43:28;7.43;;;2.80;;
80307;SDS011;69616;43.522;1.348;2023-09-30T06:45:54;8.32;;;2.80;;
80307;SDS011;69616;43.522;1.348;2023-09-30T06:48:20;8.73;;;2.80;;
80307;SDS011;69616;43.522;1.348;2023-09-30T06:50:46;8.70;;;2.80;;
80307;SDS011;69616;43.522;1.348;2023-09-30T06:53:16;9.50;;;2.90;;
80307;SDS011;69616;43.522;1.348;2023-09-30T06:55:43;8.85;;;2.88;;
80307;SDS011;69616;43.522;1.348;2023-09-30T06:58:09;6.77;;;2.97;;
80307;SDS011;69616;43.522;1.348;2023-09-30T07:00:36;8.85;;;2.88;;
80307;SDS011;69616;43.522;1.348;2023-09-30T07:03:02;7.90;;;2.78;;
80307;SDS011;69616;43.522;1.348;2023-09-30T07:05:27;9.87;;;3.13;;
80307;SDS011;69616;43.522;1.348;2023-09-30T07:07:56;13.23;;;3.17;;
80307;SDS011;69616;43.522;1.348;2023-09-30T07:10:21;7.55;;;2.72;;
80307;SDS011;69616;43.522;1.348;2023-09-30T07:12:47;8.73;;;3.10;;
80307;SDS011;69616;43.522;1.348;2023-09-30T07:15:12;9.67;;;3.27;;
80307;SDS011;69616;43.522;1.348;2023-09-30T07:17:39;7.30;;;3.00;;
80307;SDS011;69616;43.522;1.348;2023-09-30T07:20:05;8.00;;;2.60;;
80307;SDS011;69616;43.522;1.348;2023-09-30T07:22:32;7.78;;;2.90;;
80307;SDS011;69616;43.522;1.348;2023-09-30T07:25:00;9.85;;;2.88;;
80307;SDS011;69616;43.522;1.348;2023-09-30T07:27:27;10.67;;;3.10;;
80307;SDS011;69616;43.522;1.348;2023-09-30T07:29:52;9.82;;;3.38;;
80307;SDS011;69616;43.522;1.348;2023-09-30T07:32:18;7.97;;;2.53;;
80307;SDS011;69616;43.522;1.348;2023-09-30T07:34:43;9.53;;;3.07;;
80307;SDS011;69616;43.522;1.348;2023-09-30T07:37:09;8.10;;;2.90;;
80307;SDS011;69616;43.522;1.348;2023-09-30T07:39:35;9.87;;;2.57;;
80307;SDS011;69616;43.522;1.348;2023-09-30T07:42:00;8.93;;;2.70;;
80307;SDS011;69616;43.522;1.348;2023-09-30T07:44:26;8.63;;;2.80;;
80307;SDS011;69616;43.522;1.348;2023-09-30T07:46:51;8.60;;;2.87;;
80307;SDS011;69616;43.522;1.348;2023-09-30T07:49:17;11.87;;;3.00;;
80307;SDS011;69616;43.522;1.348;2023-09-30T07:51:43;13.80;;;2.80;;
80307;SDS011;69616;43.522;1.348;2023-09-30T07:54:08;9.45;;;2.72;;
80307;SDS011;69616;43.522;1.348;2023-09-30T07:56:34;12.63;;;2.63;;
80307;SDS011;69616;43.522;1.348;2023-09-30T07:58:59;11.63;;;3.23;;
80307;SDS011;69616;43.522;1.348;2023-09-30T08:01:25;7.07;;;2.70;;
80307;SDS011;69616;43.522;1.348;2023-09-30T08:03:50;8.23;;;2.57;;
80307;SDS011;69616;43.522;1.348;2023-09-30T08:06:15;8.07;;;2.20;;
80307;SDS011;69616;43.522;1.348;2023-09-30T08:08:41;10.80;;;2.83;;
80307;SDS011;69616;43.522;1.348;2023-09-30T08:11:06;8.35;;;2.47;;
80307;SDS011;69616;43.522;1.348;2023-09-30T08:13:32;9.48;;;2.72;;
80307;SDS011;69616;43.522;1.348;2023-09-30T08:15:59;9.83;;;2.30;;
80307;SDS011;69616;43.522;1.348;2023-09-30T08:18:24;9.77;;;2.60;;
80307;SDS011;69616;43.522;1.348;2023-09-30T08:20:50;9.83;;;2.40;;
80307;SDS011;69616;43.522;1.348;2023-09-30T08:23:15;10.00;;;2.40;;
80307;SDS011;69616;43.522;1.348;2023-09-30T08:25:41;9.73;;;2.70;;
80307;SDS011;69616;43.522;1.348;2023-09-30T08:28:06;8.03;;;2.90;;
80307;SDS011;69616;43.522;1.348;2023-09-30T08:30:34;9.07;;;2.63;;
80307;SDS011;69616;43.522;1.348;2023-09-30T08:33:00;11.75;;;2.67;;
80307;SDS011;69616;43.522;1.348;2023-09-30T08:35:25;7.73;;;2.60;;
80307;SDS011;69616;43.522;1.348;2023-09-30T08:37:51;10.83;;;3.10;;
80307;SDS011;69616;43.522;1.348;2023-09-30T08:40:20;10.27;;;2.77;;
80307;SDS011;69616;43.522;1.348;2023-09-30T08:42:46;8.33;;;2.70;;
80307;SDS011;69616;43.522;1.348;2023-09-30T08:45:16;7.88;;;2.30;;
80307;SDS011;69616;43.522;1.348;2023-09-30T08:47:42;8.27;;;2.40;;
80307;SDS011;69616;43.522;1.348;2023-09-30T08:50:08;16.17;;;2.80;;
80307;SDS011;69616;43.522;1.348;2023-09-30T08:52:35;10.55;;;2.60;;
80307;SDS011;69616;43.522;1.348;2023-09-30T08:55:02;10.27;;;3.10;;
80307;SDS011;69616;43.522;1.348;2023-09-30T08:57:28;12.45;;;2.60;;
80307;SDS011;69616;43.522;1.348;2023-09-30T08:59:54;9.13;;;2.70;;
80307;SDS011;69616;43.522;1.348;2023-09-30T09:02:20;12.18;;;2.83;;
80307;SDS011;69616;43.522;1.348;2023-09-30T09:04:46;7.97;;;2.33;;
80307;SDS011;69616;43.522;1.348;2023-09-30T09:07:11;10.20;;;2.63;;
80307;SDS011;69616;43.522;1.348;2023-09-30T09:09:37;9.47;;;2.57;;
80307;SDS011;69616;43.522;1.348;2023-09-30T09:12:03;10.18;;;2.80;;
80307;SDS011;69616;43.522;1.348;2023-09-30T09:17:03;8.00;;;2.53;;
80307;SDS011;69616;43.522;1.348;2023-09-30T09:19:31;9.25;;;3.08;;
80307;SDS011;69616;43.522;1.348;2023-09-30T09:21:57;12.03;;;3.30;;
80307;SDS011;69616;43.522;1.348;2023-09-30T09:24:33;11.23;;;3.22;;
80307;SDS011;69616;43.522;1.348;2023-09-30T09:29:31;9.82;;;2.83;;
80307;SDS011;69616;43.522;1.348;2023-09-30T09:32:06;10.38;;;2.58;;
80307;SDS011;69616;43.522;1.348;2023-09-30T09:34:36;11.43;;;2.87;;
80307;SDS011;69616;43.522;1.348;2023-09-30T09:37:12;10.93;;;3.20;;
80307;SDS011;69616;43.522;1.348;2023-09-30T09:39:54;10.32;;;2.42;;
80307;SDS011;69616;43.522;1.348;2023-09-30T09:42:25;8.55;;;2.35;;
80307;SDS011;69616;43.522;1.348;2023-09-30T09:44:55;10.70;;;2.25;;
80307;SDS011;69616;43.522;1.348;2023-09-30T09:47:22;11.23;;;2.40;;
80307;SDS011;69616;43.522;1.348;2023-09-30T09:49:48;7.97;;;2.50;;
80307;SDS011;69616;43.522;1.348;2023-09-30T09:52:15;8.00;;;2.40;;
80307;SDS011;69616;43.522;1.348;2023-09-30T09:54:43;7.22;;;2.33;;
80307;SDS011;69616;43.522;1.348;2023-09-30T09:57:11;8.93;;;2.30;;
80307;SDS011;69616;43.522;1.348;2023-09-30T09:59:37;8.13;;;2.47;;
80307;SDS011;69616;43.522;1.348;2023-09-30T10:02:09;9.20;;;2.47;;
80307;SDS011;69616;43.522;1.348;2023-09-30T10:04:36;10.43;;;2.40;;
80307;SDS011;69616;43.522;1.348;2023-09-30T10:07:02;9.07;;;2.22;;
80307;SDS011;69616;43.522;1.348;2023-09-30T10:09:31;6.70;;;2.03;;
80307;SDS011;69616;43.522;1.348;2023-09-30T10:12:00;9.27;;;2.20;;
80307;SDS011;69616;43.522;1.348;2023-09-30T10:14:29;8.18;;;2.08;;
80307;SDS011;69616;43.522;1.348;2023-09-30T10:16:57;7.20;;;2.28;;
80307;SDS011;69616;43.522;1.348;2023-09-30T10:19:23;11.80;;;2.50;;
80307;SDS011;69616;43.522;1.348;2023-09-30T10:24:47;6.53;;;2.20;;
80307;SDS011;69616;43.522;1.348;2023-09-30T10:29:58;7.45;;;2.10;;
80307;SDS011;69616;43.522;1.348;2023-09-30T10:37:52;8.25;;;2.53;;
80307;SDS011;69616;43.522;1.348;2023-09-30T10:40:47;6.85;;;2.22;;
80307;SDS011;69616;43.522;1.348;2023-09-30T10:43:31;6.88;;;2.53;;
80307;SDS011;69616;43.522;1.348;2023-09-30T10:46:01;5.85;;;1.95;;
80307;SDS011;69616;43.522;1.348;2023-09-30T10:51:12;8.38;;;2.42;;
80307;SDS011;69616;43.522;1.348;2023-09-30T10:53:46;6.97;;;2.10;;
80307;SDS011;69616;43.522;1.348;2023-09-30T10:56:20;6.85;;;2.22;;
80307;SDS011;69616;43.522;1.348;2023-09-30T10:58:47;5.53;;;2.20;;
80307;SDS011;69616;43.522;1.348;2023-09-30T11:01:15;9.03;;;2.57;;
80307;SDS011;69616;43.522;1.348;2023-09-30T11:03:42;7.97;;;2.50;;
80307;SDS011;69616;43.522;1.348;2023-09-30T11:06:08;8.13;;;2.20;;
80307;SDS011;69616;43.522;1.348;2023-09-30T11:08:38;8.20;;;2.58;;
80307;SDS011;69616;43.522;1.348;2023-09-30T11:11:10;6.97;;;2.05;;
80307;SDS011;69616;43.522;1.348;2023-09-30T11:13:35;7.30;;;2.23;;
80307;SDS011;69616;43.522;1.348;2023-09-30T11:16:02;7.17;;;2.30;;
80307;SDS011;69616;43.522;1.348;2023-09-30T11:18:32;6.38;;;2.30;;
80307;SDS011;69616;43.522;1.348;2023-09-30T11:21:08;8.32;;;2.42;;
80307;SDS011;69616;43.522;1.348;2023-09-30T11:23:35;5.90;;;2.20;;
80307;SDS011;69616;43.522;1.348;2023-09-30T11:26:02;7.93;;;2.25;;
80307;SDS011;69616;43.522;1.348;2023-09-30T11:28:35;6.85;;;2.22;;
80307;SDS011;69616;43.522;1.348;2023-09-30T11:31:07;9.13;;;2.28;;
80307;SDS011;69616;43.522;1.348;2023-09-30T11:33:48;7.07;;;2.08;;
80307;SDS011;69616;43.522;1.348;2023-09-30T11:36:14;7.27;;;2.10;;
80307;SDS011;69616;43.522;1.348;2023-09-30T11:38:43;6.63;;;2.00;;
80307;SDS011;69616;43.522;1.348;2023-09-30T11:41:10;5.97;;;2.00;;
80307;SDS011;69616;43.522;1.348;2023-09-30T11:43:36;6.03;;;2.07;;
80307;SDS011;69616;43.522;1.348;2023-09-30T11:46:09;7.97;;;2.43;;
80307;SDS011;69616;43.522;1.348;2023-09-30T11:48:37;5.50;;;1.90;;
80307;SDS011;69616;43.522;1.348;2023-09-30T11:51:03;6.35;;;2.08;;
80307;SDS011;69616;43.522;1.348;2023-09-30T11:53:29;5.70;;;2.10;;
80307;SDS011;69616;43.522;1.348;2023-09-30T11:55:56;5.43;;;1.92;;
80307;SDS011;69616;43.522;1.348;2023-09-30T11:58:28;7.68;;;2.65;;
80307;SDS011;69616;43.522;1.348;2023-09-30T12:00:54;6.72;;;2.50;;
80307;SDS011;69616;43.522;1.348;2023-09-30T12:03:22;8.05;;;2.33;;
80307;SDS011;69616;43.522;1.348;2023-09-30T12:05:48;4.87;;;1.87;;
80307;SDS011;69616;43.522;1.348;2023-09-30T12:08:14;7.05;;;2.25;;
80307;SDS011;69616;43.522;1.348;2023-09-30T12:10:39;5.37;;;1.80;;
80307;SDS011;69616;43.522;1.348;2023-09-30T12:13:05;7.75;;;2.17;;
80307;SDS011;69616;43.522;1.348;2023-09-30T12:15:30;5.40;;;2.10;;
80307;SDS011;69616;43.522;1.348;2023-09-30T12:17:56;5.20;;;2.00;;
80307;SDS011;69616;43.522;1.348;2023-09-30T12:20:21;5.65;;;2.20;;
80307;SDS011;69616;43.522;1.348;2023-09-30T12:22:47;5.97;;;2.08;;
80307;SDS011;69616;43.522;1.348;2023-09-30T12:25:13;6.33;;;2.07;;
80307;SDS011;69616;43.522;1.348;2023-09-30T12:27:39;5.22;;;1.90;;
80307;SDS011;69616;43.522;1.348;2023-09-30T12:30:05;6.00;;;1.90;;
80307;SDS011;69616;43.522;1.348;2023-09-30T12:32:31;5.72;;;1.90;;
80307;SDS011;69616;43.522;1.348;2023-09-30T12:34:57;5.38;;;1.77;;
80307;SDS011;69616;43.522;1.348;2023-09-30T12:37:22;6.90;;;1.87;;
80307;SDS011;69616;43.522;1.348;2023-09-30T12:39:48;5.93;;;2.07;;
80307;SDS011;69616;43.522;1.348;2023-09-30T12:42:13;5.97;;;2.20;;
80307;SDS011;69616;43.522;1.348;2023-09-30T12:44:39;5.18;;;1.83;;
80307;SDS011;69616;43.522;1.348;2023-09-30T12:47:05;5.23;;;1.73;;
80307;SDS011;69616;43.522;1.348;2023-09-30T12:49:31;5.60;;;1.77;;
80307;SDS011;69616;43.522;1.348;2023-09-30T12:51:57;4.80;;;1.87;;
80307;SDS011;69616;43.522;1.348;2023-09-30T12:54:24;5.72;;;1.80;;
80307;SDS011;69616;43.522;1.348;2023-09-30T12:56:49;5.53;;;2.10;;
80307;SDS011;69616;43.522;1.348;2023-09-30T12:59:15;6.07;;;2.00;;
80307;SDS011;69616;43.522;1.348;2023-09-30T13:01:42;6.47;;;2.17;;
80307;SDS011;69616;43.522;1.348;2023-09-30T13:04:09;6.47;;;2.15;;
80307;SDS011;69616;43.522;1.348;2023-09-30T13:06:34;5.53;;;1.83;;
80307;SDS011;69616;43.522;1.348;2023-09-30T13:09:01;5.90;;;1.88;;
80307;SDS011;69616;43.522;1.348;2023-09-30T13:11:29;6.50;;;1.90;;
80307;SDS011;69616;43.522;1.348;2023-09-30T13:13:54;6.93;;;2.10;;
80307;SDS011;69616;43.522;1.348;2023-09-30T13:16:20;5.23;;;1.97;;
80307;SDS011;69616;43.522;1.348;2023-09-30T13:18:45;5.33;;;1.70;;
80307;SDS011;69616;43.522;1.348;2023-09-30T13:21:11;5.28;;;1.85;;
80307;SDS011;69616;43.522;1.348;2023-09-30T13:23:37;6.40;;;2.20;;
80307;SDS011;69616;43.522;1.348;2023-09-30T13:26:03;5.20;;;1.80;;
80307;SDS011;69616;43.522;1.348;2023-09-30T13:28:28;6.40;;;1.95;;
80307;SDS011;69616;43.522;1.348;2023-09-30T13:30:54;5.73;;;1.70;;
80307;SDS011;69616;43.522;1.348;2023-09-30T13:33:20;5.43;;;1.70;;
80307;SDS011;69616;43.522;1.348;2023-09-30T13:35:47;5.45;;;1.80;;
80307;SDS011;69616;43.522;1.348;2023-09-30T13:38:13;6.03;;;2.17;;
80307;SDS011;69616;43.522;1.348;2023-09-30T13:40:38;5.38;;;1.77;;
80307;SDS011;69616;43.522;1.348;2023-09-30T13:43:05;5.25;;;2.03;;
80307;SDS011;69616;43.522;1.348;2023-09-30T13:45:30;5.43;;;1.87;;
80307;SDS011;69616;43.522;1.348;2023-09-30T13:47:55;5.77;;;2.20;;
80307;SDS011;69616;43.522;1.348;2023-09-30T13:50:21;5.20;;;1.67;;
80307;SDS011;69616;43.522;1.348;2023-09-30T13:52:46;5.50;;;1.80;;
80307;SDS011;69616;43.522;1.348;2023-09-30T13:55:12;5.90;;;1.87;;
80307;SDS011;69616;43.522;1.348;2023-09-30T13:57:43;5.35;;;1.90;;
80307;SDS011;69616;43.522;1.348;2023-09-30T14:00:10;6.20;;;2.00;;
80307;SDS011;69616;43.522;1.348;2023-09-30T14:02:36;5.43;;;1.77;;
80307;SDS011;69616;43.522;1.348;2023-09-30T14:05:02;6.70;;;2.05;;
80307;SDS011;69616;43.522;1.348;2023-09-30T14:07:29;5.13;;;1.60;;
80307;SDS011;69616;43.522;1.348;2023-09-30T14:09:54;6.77;;;2.00;;
80307;SDS011;69616;43.522;1.348;2023-09-30T14:12:20;5.70;;;1.80;;
80307;SDS011;69616;43.522;1.348;2023-09-30T14:14:45;5.53;;;2.00;;
80307;SDS011;69616;43.522;1.348;2023-09-30T14:17:11;12.00;;;2.70;;
80307;SDS011;69616;43.522;1.348;2023-09-30T14:19:37;9.15;;;2.03;;
80307;SDS011;69616;43.522;1.348;2023-09-30T14:22:03;6.13;;;1.80;;
80307;SDS011;69616;43.522;1.348;2023-09-30T14:24:30;5.77;;;1.70;;
80307;SDS011;69616;43.522;1.348;2023-09-30T14:26:56;5.45;;;1.77;;
80307;SDS011;69616;43.522;1.348;2023-09-30T14:29:21;6.40;;;2.00;;
80307;SDS011;69616;43.522;1.348;2023-09-30T14:31:47;5.10;;;1.83;;
80307;SDS011;69616;43.522;1.348;2023-09-30T14:34:12;5.67;;;1.97;;
80307;SDS011;69616;43.522;1.348;2023-09-30T14:36:39;8.98;;;1.92;;
80307;SDS011;69616;43.522;1.348;2023-09-30T14:39:04;6.03;;;1.83;;
80307;SDS011;69616;43.522;1.348;2023-09-30T14:41:30;6.37;;;1.90;;
80307;SDS011;69616;43.522;1.348;2023-09-30T14:43:55;4.73;;;1.60;;
80307;SDS011;69616;43.522;1.348;2023-09-30T14:46:21;5.33;;;1.60;;
80307;SDS011;69616;43.522;1.348;2023-09-30T14:48:47;8.00;;;1.90;;
80307;SDS011;69616;43.522;1.348;2023-09-30T14:51:12;5.33;;;1.50;;
80307;SDS011;69616;43.522;1.348;2023-09-30T14:53:37;5.87;;;1.90;;
80307;SDS011;69616;43.522;1.348;2023-09-30T14:56:03;6.25;;;1.90;;
80307;SDS011;69616;43.522;1.348;2023-09-30T14:58:30;4.97;;;1.97;;